Time;durP1;ratioP1;P1;durP2;ratioP2;P2;SDS_P1;SDS_P2;PMS_P1;PMS_P2;Temp;Humidity;BMP_temperature;BMP_pressure;BME280_temperature;BME280_humidity;BME280_pressure;Samples;Min_cycle;Max_cycle;Signal;HPM_P1;HPM_P2
2023/04/07 00:01:58;;;;;;;52.50;48.50;;;9.30;99.90;;;;;;5226290;28;20083;-70
2023/04/07 00:04:29;;;;;;;58.80;54.08;;;9.10;99.90;;;;;;5226941;28;20078;-70
2023/04/07 00:07:00;;;;;;;54.97;50.75;;;9.20;99.90;;;;;;5226457;28;20025;-70
2023/04/07 00:09:31;;;;;;;57.97;53.63;;;9.00;99.90;;;;;;5225525;28;20038;-70
2023/04/07 00:12:02;;;;;;;54.97;50.85;;;9.00;99.90;;;;;;5226507;28;20028;-70
2023/04/07 00:14:34;;;;;;;55.90;51.90;;;9.10;99.90;;;;;;5226269;28;20053;-70
2023/04/07 00:17:05;;;;;;;54.03;49.92;;;8.90;99.90;;;;;;5226325;28;20024;-70
2023/04/07 00:19:36;;;;;;;54.20;50.40;;;9.00;99.90;;;;;;5226388;28;20025;-70
2023/04/07 00:22:07;;;;;;;56.33;52.33;;;9.00;99.90;;;;;;5226453;28;20025;-70
2023/04/07 00:24:38;;;;;;;50.13;46.45;;;8.90;99.90;;;;;;5226661;28;20041;-70
2023/04/07 00:27:09;;;;;;;54.60;50.83;;;9.00;99.90;;;;;;5226370;28;20063;-70
2023/04/07 00:29:40;;;;;;;57.28;53.42;;;8.90;99.90;;;;;;5226381;28;20036;-70
2023/04/07 00:32:10;;;;;;;52.83;49.05;;;9.00;99.90;;;;;;5226235;28;20017;-70
2023/04/07 00:34:41;;;;;;;55.17;51.45;;;9.00;99.90;;;;;;5226238;28;20057;-70
2023/04/07 00:37:12;;;;;;;53.70;49.90;;;9.00;99.90;;;;;;5226193;28;20091;-70
2023/04/07 00:39:43;;;;;;;58.17;54.35;;;8.80;99.90;;;;;;5226287;28;20025;-70
2023/04/07 00:42:14;;;;;;;54.30;50.75;;;8.90;99.90;;;;;;5226135;28;20068;-70
2023/04/07 00:44:45;;;;;;;51.42;47.67;;;8.90;99.90;;;;;;5226100;28;20566;-70
2023/04/07 00:47:16;;;;;;;55.05;51.28;;;8.90;99.90;;;;;;5226149;28;20023;-69
2023/04/07 00:49:47;;;;;;;54.10;50.03;;;9.00;99.90;;;;;;5226039;28;20057;-70
2023/04/07 00:52:25;;;;;;;60.33;55.92;;;8.60;99.90;;;;;;5226077;28;20063;-70
2023/04/07 00:54:58;;;;;;;59.00;54.67;;;8.80;99.90;;;;;;5226015;28;20037;-69
2023/04/07 00:57:29;;;;;;;60.47;56.20;;;8.50;99.90;;;;;;5226071;28;20392;-70
2023/04/07 01:00:00;;;;;;;60.85;56.30;;;8.80;99.90;;;;;;5226025;28;20025;-70
2023/04/07 01:02:42;;;;;;;61.38;56.40;;;8.90;99.90;;;;;;5225837;28;20033;-70
2023/04/07 01:05:32;;;;;;;62.83;57.97;;;8.70;99.90;;;;;;5226354;28;20041;-70
2023/04/07 01:08:34;;;;;;;66.18;60.47;;;8.60;99.90;;;;;;5229762;28;20075;-70
2023/04/07 01:11:16;;;;;;;66.03;60.28;;;8.70;99.90;;;;;;5229608;28;20025;-70
2023/04/07 01:13:52;;;;;;;68.70;62.58;;;8.60;99.90;;;;;;5229584;28;20060;-70
2023/04/07 01:16:34;;;;;;;68.85;62.20;;;8.60;99.90;;;;;;5229655;28;20044;-70
2023/04/07 01:19:25;;;;;;;65.13;58.15;;;8.60;99.90;;;;;;5229505;28;20082;-70
2023/04/07 01:21:59;;;;;;;72.47;65.40;;;8.40;99.90;;;;;;5229323;28;20025;-70
2023/04/07 01:24:51;;;;;;;70.00;62.95;;;8.70;99.90;;;;;;5229466;28;20377;-70
2023/04/07 01:27:55;;;;;;;71.40;64.57;;;8.70;99.90;;;;;;5229469;28;20017;-67
2023/04/07 01:30:33;;;;;;;71.28;64.10;;;8.50;99.90;;;;;;5225337;28;20041;-70
2023/04/07 01:33:05;;;;;;;71.18;64.85;;;8.60;99.90;;;;;;5228968;28;20041;-69
2023/04/07 01:35:38;;;;;;;68.57;62.35;;;8.40;99.90;;;;;;5229259;28;20045;-70
2023/04/07 01:38:10;;;;;;;68.63;61.90;;;8.50;99.90;;;;;;5229541;28;20029;-70
2023/04/07 01:40:43;;;;;;;74.10;67.75;;;8.50;99.90;;;;;;5229321;28;20108;-70
2023/04/07 01:43:15;;;;;;;63.88;57.97;;;8.40;99.90;;;;;;5229096;28;20037;-70
2023/04/07 01:45:46;;;;;;;73.45;67.32;;;8.40;99.90;;;;;;5228858;28;20028;-70
2023/04/07 01:48:17;;;;;;;69.72;63.70;;;8.30;99.90;;;;;;5228888;28;20033;-70
2023/04/07 01:50:50;;;;;;;71.13;65.22;;;8.40;99.90;;;;;;5228909;28;20078;-70
2023/04/07 01:53:22;;;;;;;63.13;57.47;;;8.40;99.90;;;;;;5229023;28;20021;-70
2023/04/07 01:55:53;;;;;;;64.28;58.25;;;8.30;99.90;;;;;;5228785;28;20032;-70
2023/04/07 01:58:25;;;;;;;70.78;64.78;;;8.40;99.90;;;;;;5228754;28;20524;-70
2023/04/07 02:00:56;;;;;;;60.03;55.03;;;8.50;99.90;;;;;;5228776;28;20021;-70
2023/04/07 02:03:43;;;;;;;63.85;58.70;;;8.40;99.90;;;;;;5228373;28;20041;-70
2023/04/07 02:06:20;;;;;;;61.72;56.75;;;8.30;99.90;;;;;;5228548;28;20049;-70
2023/04/07 02:08:56;;;;;;;62.05;56.40;;;8.30;99.90;;;;;;5228542;28;20025;-70
2023/04/07 02:11:31;;;;;;;62.90;58.20;;;8.30;99.90;;;;;;5228559;28;20040;-70
2023/04/07 02:14:05;;;;;;;61.90;56.97;;;8.50;99.90;;;;;;5228426;28;20040;-70
2023/04/07 02:16:38;;;;;;;60.45;55.78;;;8.30;99.90;;;;;;5228386;28;20021;-70
2023/04/07 02:19:09;;;;;;;59.47;55.10;;;8.50;99.90;;;;;;5228401;28;20033;-70
2023/04/07 02:21:41;;;;;;;60.63;56.05;;;8.30;99.90;;;;;;5228370;28;20028;-70
2023/04/07 02:24:12;;;;;;;61.53;56.90;;;8.30;99.90;;;;;;5228100;28;20045;-70
2023/04/07 02:26:42;;;;;;;60.50;55.88;;;8.50;99.90;;;;;;5228205;28;20028;-70
2023/04/07 02:29:13;;;;;;;62.83;58.35;;;8.50;99.90;;;;;;5228097;28;20084;-70
2023/04/07 02:31:44;;;;;;;57.25;53.15;;;8.50;99.90;;;;;;5228022;28;20046;-70
2023/04/07 02:34:15;;;;;;;60.90;56.33;;;8.60;99.90;;;;;;5227729;28;20098;-70
2023/04/07 02:36:46;;;;;;;57.70;53.55;;;8.40;99.90;;;;;;5227963;28;20164;-70
2023/04/07 02:39:17;;;;;;;57.35;53.13;;;8.30;99.90;;;;;;5227814;28;20091;-70
2023/04/07 02:41:47;;;;;;;57.85;53.85;;;8.10;99.90;;;;;;5228228;28;20108;-70
2023/04/07 02:44:18;;;;;;;54.42;50.63;;;8.00;99.90;;;;;;5227796;28;20029;-70
2023/04/07 02:46:49;;;;;;;62.30;58.00;;;7.90;99.90;;;;;;5227870;28;20036;-70
2023/04/07 02:49:20;;;;;;;62.08;57.97;;;8.10;99.90;;;;;;5227939;28;20021;-70
2023/04/07 02:51:51;;;;;;;59.30;55.15;;;8.10;99.90;;;;;;5228035;28;20567;-70
2023/04/07 02:54:22;;;;;;;60.92;56.72;;;8.20;99.90;;;;;;5228085;28;20092;-70
2023/04/07 02:56:53;;;;;;;66.47;62.08;;;7.90;99.90;;;;;;5227764;28;20767;-70
2023/04/07 02:59:24;;;;;;;63.10;58.95;;;8.00;99.90;;;;;;5227634;28;20025;-69
2023/04/07 03:01:54;;;;;;;56.65;52.75;;;8.00;99.90;;;;;;5227389;28;20024;-70
2023/04/07 03:04:26;;;;;;;59.22;55.25;;;8.20;99.90;;;;;;5227373;28;20039;-70
2023/04/07 03:06:57;;;;;;;59.42;55.33;;;7.80;99.90;;;;;;5227485;28;20021;-70
2023/04/07 03:09:28;;;;;;;60.67;56.55;;;8.00;99.90;;;;;;5227479;28;20029;-70
2023/04/07 03:11:59;;;;;;;60.50;56.47;;;8.00;99.90;;;;;;5227421;28;20487;-70
2023/04/07 03:14:30;;;;;;;59.60;55.50;;;7.90;99.90;;;;;;5227445;28;20025;-70
2023/04/07 03:17:01;;;;;;;57.38;53.60;;;7.80;99.90;;;;;;5227159;28;20043;-70
2023/04/07 03:19:31;;;;;;;63.65;59.25;;;7.80;99.90;;;;;;5227122;28;20688;-70
2023/04/07 03:22:02;;;;;;;61.38;57.22;;;7.80;99.90;;;;;;5227209;28;20039;-70
2023/04/07 03:24:33;;;;;;;66.88;62.28;;;7.70;99.90;;;;;;5227037;28;20115;-70
2023/04/07 03:27:04;;;;;;;62.80;58.45;;;7.70;99.90;;;;;;5227054;28;20020;-70
2023/04/07 03:29:35;;;;;;;61.00;56.95;;;7.90;99.90;;;;;;5226378;28;20484;-70
2023/04/07 03:32:06;;;;;;;58.47;54.58;;;7.90;99.90;;;;;;5226637;28;20029;-70
2023/04/07 03:34:36;;;;;;;63.63;59.40;;;7.90;99.90;;;;;;5226730;28;20500;-70
2023/04/07 03:37:07;;;;;;;57.25;53.40;;;8.00;99.90;;;;;;5226823;28;20032;-70
2023/04/07 03:39:39;;;;;;;58.10;54.40;;;8.10;99.90;;;;;;5226848;28;20083;-70
2023/04/07 03:42:10;;;;;;;63.03;58.97;;;8.00;99.90;;;;;;5226672;28;20052;-67
2023/04/07 03:44:41;;;;;;;58.97;55.13;;;8.00;99.90;;;;;;5226653;28;20104;-70
2023/04/07 03:47:12;;;;;;;62.10;57.70;;;8.00;99.90;;;;;;5226732;28;20107;-70
2023/04/07 03:49:43;;;;;;;61.92;57.72;;;7.90;99.90;;;;;;5226609;28;20047;-70
2023/04/07 03:52:14;;;;;;;58.70;54.72;;;7.60;99.90;;;;;;5226728;28;20480;-70
2023/04/07 03:54:45;;;;;;;58.03;54.40;;;7.60;99.90;;;;;;5226434;28;20033;-70
2023/04/07 03:57:16;;;;;;;55.53;51.85;;;7.70;99.90;;;;;;5226617;28;20028;-70
2023/04/07 03:59:49;;;;;;;58.17;54.25;;;7.80;99.90;;;;;;5226506;28;20036;-70
2023/04/07 04:02:20;;;;;;;61.20;56.97;;;7.70;99.90;;;;;;5226095;28;20033;-70
2023/04/07 04:04:51;;;;;;;64.60;59.88;;;7.60;99.90;;;;;;5226370;28;20037;-68
2023/04/07 04:07:23;;;;;;;64.95;60.28;;;7.60;99.90;;;;;;5226506;28;20113;-70
2023/04/07 04:09:53;;;;;;;67.50;62.03;;;7.40;99.90;;;;;;5226617;28;20036;-70
2023/04/07 04:12:24;;;;;;;73.47;67.70;;;7.70;99.90;;;;;;5226621;28;20025;-70
2023/04/07 04:14:55;;;;;;;69.22;64.22;;;7.60;99.90;;;;;;5226570;28;20500;-70
2023/04/07 04:17:26;;;;;;;68.45;63.35;;;7.70;99.90;;;;;;5226410;28;20446;-70
2023/04/07 04:19:57;;;;;;;71.25;66.28;;;7.90;99.90;;;;;;5226331;28;20025;-70
2023/04/07 04:22:27;;;;;;;68.20;63.50;;;7.80;99.90;;;;;;5226322;28;20036;-70
2023/04/07 04:24:59;;;;;;;65.30;60.63;;;7.90;99.90;;;;;;5226329;28;20048;-70
2023/04/07 04:27:30;;;;;;;74.07;68.82;;;7.80;99.90;;;;;;5226321;28;20358;-69
2023/04/07 04:30:02;;;;;;;72.03;67.03;;;7.80;99.90;;;;;;5226320;28;20040;-70
2023/04/07 04:32:33;;;;;;;69.25;63.75;;;7.80;99.90;;;;;;5226008;28;20025;-69
2023/04/07 04:35:05;;;;;;;65.10;60.45;;;7.90;99.90;;;;;;5226023;28;20061;-70
2023/04/07 04:37:36;;;;;;;73.80;68.35;;;7.80;99.90;;;;;;5226160;28;20052;-70
2023/04/07 04:40:08;;;;;;;69.88;65.18;;;7.90;99.90;;;;;;5228184;28;20063;-70
2023/04/07 04:42:39;;;;;;;65.05;60.58;;;8.10;99.90;;;;;;5230282;28;20381;-70
2023/04/07 04:45:10;;;;;;;69.47;64.57;;;8.10;99.90;;;;;;5230146;28;20029;-70
2023/04/07 04:47:42;;;;;;;69.70;64.88;;;8.10;99.90;;;;;;5230130;28;20083;-70
2023/04/07 04:50:13;;;;;;;68.07;63.53;;;8.10;99.90;;;;;;5230210;28;20036;-70
2023/04/07 04:52:44;;;;;;;64.28;59.80;;;8.00;99.90;;;;;;5229933;28;20033;-70
2023/04/07 04:55:15;;;;;;;67.35;62.67;;;8.40;99.90;;;;;;5230129;28;20376;-70
2023/04/07 04:57:46;;;;;;;71.57;66.25;;;8.40;99.90;;;;;;5229939;28;20507;-70
2023/04/07 05:00:17;;;;;;;71.32;66.25;;;8.40;99.90;;;;;;5229892;28;20036;-70
2023/04/07 05:02:48;;;;;;;69.95;65.15;;;8.50;99.90;;;;;;5229613;28;20044;-70
2023/04/07 05:05:19;;;;;;;72.65;67.60;;;8.50;99.90;;;;;;5229772;28;20045;-70
2023/04/07 05:07:50;;;;;;;60.83;56.67;;;8.60;99.90;;;;;;5229822;28;20009;-70
2023/04/07 05:10:20;;;;;;;64.18;59.72;;;8.70;99.90;;;;;;5229972;28;20029;-70
2023/04/07 05:12:51;;;;;;;62.78;58.50;;;8.80;99.90;;;;;;5229801;28;20025;-69
2023/04/07 05:15:22;;;;;;;64.03;59.70;;;8.70;99.90;;;;;;5229657;28;20108;-68
2023/04/07 05:17:53;;;;;;;59.10;55.20;;;8.70;99.90;;;;;;5229774;28;20033;-70
2023/04/07 05:20:25;;;;;;;58.08;54.03;;;8.90;99.90;;;;;;5229655;28;20013;-70
2023/04/07 05:22:55;;;;;;;61.05;57.08;;;9.00;99.90;;;;;;5229760;28;20079;-70
2023/04/07 05:25:26;;;;;;;57.33;53.13;;;9.00;99.90;;;;;;5229721;28;20037;-70
2023/04/07 05:27:58;;;;;;;67.25;62.42;;;9.00;99.90;;;;;;5229394;28;20021;-70
2023/04/07 05:30:29;;;;;;;65.35;60.47;;;9.10;99.90;;;;;;5229435;28;20444;-70
2023/04/07 05:33:00;;;;;;;60.55;56.20;;;9.10;99.90;;;;;;5229276;28;20052;-70
2023/04/07 05:35:31;;;;;;;63.88;59.03;;;9.20;99.90;;;;;;5229318;28;20041;-70
2023/04/07 05:38:02;;;;;;;62.85;58.10;;;9.30;99.90;;;;;;5229265;28;20101;-70
2023/04/07 05:40:33;;;;;;;63.80;59.28;;;9.30;99.90;;;;;;5229143;28;20029;-71
2023/04/07 05:43:03;;;;;;;69.88;64.80;;;9.30;99.90;;;;;;5229099;28;20044;-70
2023/04/07 05:45:35;;;;;;;62.50;57.72;;;9.20;99.90;;;;;;5229081;28;20393;-70
2023/04/07 05:48:05;;;;;;;66.50;61.50;;;9.20;99.90;;;;;;5229095;28;20029;-70
2023/04/07 05:50:36;;;;;;;59.75;55.30;;;9.30;99.90;;;;;;5228791;28;20071;-70
2023/04/07 05:53:07;;;;;;;60.22;56.05;;;9.20;99.90;;;;;;5228613;28;20037;-70
2023/04/07 05:55:40;;;;;;;64.53;59.85;;;9.30;99.90;;;;;;5228791;28;20028;-70
2023/04/07 05:58:11;;;;;;;66.03;61.17;;;9.30;99.90;;;;;;5228974;28;20055;-71
2023/04/07 06:00:42;;;;;;;68.13;63.20;;;9.40;99.90;;;;;;5228771;28;20107;-68
2023/04/07 06:03:13;;;;;;;62.85;58.60;;;9.50;99.90;;;;;;5228558;28;20049;-70
2023/04/07 06:05:47;;;;;;;63.45;59.05;;;9.40;99.90;;;;;;5228826;28;20052;-70
2023/04/07 06:08:18;;;;;;;62.65;58.33;;;9.50;99.90;;;;;;5228705;28;20071;-70
2023/04/07 06:10:49;;;;;;;64.00;59.70;;;9.50;99.90;;;;;;5228525;28;20061;-70
2023/04/07 06:13:19;;;;;;;60.85;56.65;;;9.40;99.90;;;;;;5228566;28;20435;-70
2023/04/07 06:15:50;;;;;;;60.63;56.53;;;9.30;99.90;;;;;;5228485;28;20028;-66
2023/04/07 06:18:21;;;;;;;60.65;56.60;;;9.30;99.90;;;;;;5227160;28;20496;-67
2023/04/07 06:20:52;;;;;;;65.18;60.58;;;9.10;99.90;;;;;;5228403;28;20032;-70
2023/04/07 06:23:23;;;;;;;69.45;64.55;;;9.20;99.90;;;;;;5228244;28;20135;-70
2023/04/07 06:25:54;;;;;;;68.63;63.75;;;9.20;99.90;;;;;;5228217;28;20048;-70
2023/04/07 06:28:25;;;;;;;96.90;90.47;;;9.30;99.90;;;;;;5228261;28;20029;-70
2023/04/07 06:30:57;;;;;;;64.95;60.40;;;9.40;99.90;;;;;;5228120;28;20354;-70
2023/04/07 06:33:27;;;;;;;74.13;68.93;;;9.30;99.90;;;;;;5227896;28;20039;-70
2023/04/07 06:35:58;;;;;;;66.25;61.50;;;9.50;99.90;;;;;;5228347;28;20605;-70
2023/04/07 06:38:30;;;;;;;69.97;65.32;;;9.40;99.90;;;;;;5228251;28;20334;-70
2023/04/07 06:41:01;;;;;;;67.43;62.75;;;9.50;99.90;;;;;;5228077;28;20426;-70
2023/04/07 06:43:32;;;;;;;68.57;63.90;;;9.50;99.90;;;;;;5227936;28;20060;-70
2023/04/07 06:46:03;;;;;;;62.80;58.53;;;9.50;99.90;;;;;;5227842;28;20492;-71
2023/04/07 06:48:34;;;;;;;62.47;58.35;;;9.40;99.90;;;;;;5227745;28;20049;-70
2023/04/07 06:51:05;;;;;;;66.00;61.63;;;9.40;99.90;;;;;;5227921;28;20480;-70
2023/04/07 06:53:35;;;;;;;68.50;64.03;;;9.40;99.90;;;;;;5227670;28;20486;-70
2023/04/07 06:56:09;;;;;;;74.20;69.38;;;9.40;99.90;;;;;;5227686;28;20014;-70
2023/04/07 06:58:40;;;;;;;63.70;59.50;;;9.50;99.90;;;;;;5227621;28;20028;-70
2023/04/07 07:01:11;;;;;;;78.40;73.25;;;9.30;99.90;;;;;;5227563;28;20025;-70
2023/04/07 07:03:42;;;;;;;75.68;70.88;;;9.30;99.90;;;;;;5226491;28;20049;-69
2023/04/07 07:06:12;;;;;;;64.43;60.33;;;9.30;99.90;;;;;;5227413;28;20485;-70
2023/04/07 07:08:43;;;;;;;69.10;64.78;;;9.40;99.90;;;;;;5227374;28;20037;-70
2023/04/07 07:11:14;;;;;;;69.18;64.78;;;9.40;99.90;;;;;;5227502;28;20025;-70
2023/04/07 07:13:45;;;;;;;66.72;62.22;;;9.40;99.90;;;;;;5227193;28;20048;-70
2023/04/07 07:16:16;;;;;;;68.47;64.00;;;9.50;99.90;;;;;;5227155;28;20025;-70
2023/04/07 07:18:47;;;;;;;67.70;63.28;;;9.50;99.90;;;;;;5227327;28;20029;-70
2023/04/07 07:21:18;;;;;;;65.32;61.00;;;9.50;99.90;;;;;;5227045;28;20032;-69
2023/04/07 07:23:49;;;;;;;68.80;64.25;;;9.30;99.90;;;;;;5227123;28;20040;-70
2023/04/07 07:26:20;;;;;;;67.30;63.00;;;9.40;99.90;;;;;;5227123;28;20029;-70
2023/04/07 07:28:50;;;;;;;72.38;67.40;;;9.30;99.90;;;;;;5227042;28;20028;-67
2023/04/07 07:31:21;;;;;;;71.60;67.15;;;9.40;99.90;;;;;;5226952;28;20025;-70
2023/04/07 07:33:52;;;;;;;70.18;65.57;;;9.30;99.90;;;;;;5226539;28;20135;-69
2023/04/07 07:36:23;;;;;;;73.47;68.88;;;9.30;99.90;;;;;;5226921;28;20040;-70
2023/04/07 07:38:54;;;;;;;68.93;64.45;;;9.30;99.90;;;;;;5227228;28;20039;-70
2023/04/07 07:41:26;;;;;;;69.60;65.18;;;9.40;99.90;;;;;;5226661;28;20487;-70
2023/04/07 07:43:56;;;;;;;69.72;65.22;;;9.50;99.90;;;;;;5226771;28;20033;-70
2023/04/07 07:46:27;;;;;;;69.53;64.82;;;9.50;99.90;;;;;;5225491;28;20021;-70
2023/04/07 07:48:58;;;;;;;73.10;68.35;;;9.60;99.90;;;;;;5226792;28;20035;-70
2023/04/07 07:51:29;;;;;;;69.60;64.90;;;9.60;99.90;;;;;;5227115;28;20022;-70
2023/04/07 07:54:00;;;;;;;65.25;61.25;;;9.70;99.90;;;;;;5227027;28;20348;-70
2023/04/07 07:56:31;;;;;;;66.82;62.40;;;9.60;99.90;;;;;;5226581;28;20028;-68
2023/04/07 07:59:05;;;;;;;68.20;63.88;;;9.50;99.90;;;;;;5226716;28;20032;-70
2023/04/07 08:01:36;;;;;;;71.82;67.45;;;9.50;99.90;;;;;;5226598;28;20428;-69
2023/04/07 08:04:06;;;;;;;67.53;63.35;;;9.60;99.90;;;;;;5226430;28;20036;-66
2023/04/07 08:06:37;;;;;;;66.57;62.22;;;9.60;99.90;;;;;;5226638;28;20051;-70
2023/04/07 08:09:08;;;;;;;68.07;63.83;;;9.60;99.90;;;;;;5226507;28;20029;-70
2023/04/07 08:11:39;;;;;;;68.05;63.80;;;9.60;99.90;;;;;;5226562;28;20488;-69
2023/04/07 08:14:10;;;;;;;70.40;65.70;;;9.70;99.90;;;;;;5226153;28;20075;-70
2023/04/07 08:16:41;;;;;;;67.75;63.35;;;9.40;99.90;;;;;;5226468;28;20025;-69
2023/04/07 08:19:12;;;;;;;71.28;66.63;;;9.70;99.90;;;;;;5226540;28;20580;-70
2023/04/07 08:21:43;;;;;;;69.65;65.07;;;9.50;99.90;;;;;;5226328;28;20028;-70
2023/04/07 08:24:14;;;;;;;63.10;58.50;;;9.50;99.90;;;;;;5226164;28;20400;-70
2023/04/07 08:26:45;;;;;;;65.80;61.35;;;9.70;99.90;;;;;;5226344;28;20487;-70
2023/04/07 08:29:16;;;;;;;62.97;59.03;;;9.80;99.90;;;;;;5226404;28;20017;-70
2023/04/07 08:31:46;;;;;;;68.30;63.70;;;9.70;99.90;;;;;;5226057;28;20020;-69
2023/04/07 08:34:19;;;;;;;64.88;60.47;;;10.00;99.90;;;;;;5225920;28;20060;-70
2023/04/07 08:36:50;;;;;;;59.05;55.05;;;10.00;99.90;;;;;;5226202;28;20376;-70
2023/04/07 08:39:24;;;;;;;63.38;59.08;;;10.20;99.90;;;;;;5226125;28;20021;-70
2023/04/07 08:41:56;;;;;;;59.33;55.53;;;10.20;99.90;;;;;;5226244;28;20385;-70
2023/04/07 08:44:28;;;;;;;64.03;59.92;;;10.40;99.90;;;;;;5225896;28;20477;-70
2023/04/07 08:47:00;;;;;;;61.60;57.60;;;10.50;99.90;;;;;;5225997;28;20025;-70
2023/04/07 08:49:35;;;;;;;60.05;55.70;;;10.80;99.90;;;;;;5225952;28;20486;-70
2023/04/07 08:52:10;;;;;;;65.03;60.85;;;10.70;99.90;;;;;;5226038;28;20054;-70
2023/04/07 08:54:41;;;;;;;60.60;56.60;;;10.60;99.90;;;;;;5226168;28;20491;-70
2023/04/07 08:57:13;;;;;;;64.20;60.10;;;10.80;99.90;;;;;;5226042;28;20033;-71
2023/04/07 08:59:47;;;;;;;58.38;54.70;;;10.90;99.90;;;;;;5226141;28;20090;-70
2023/04/07 09:02:18;;;;;;;60.13;56.38;;;11.20;99.90;;;;;;5226014;28;20444;-70
2023/04/07 09:04:49;;;;;;;63.35;59.25;;;11.40;99.90;;;;;;5226206;28;20124;-70
2023/04/07 09:07:20;;;;;;;63.08;58.63;;;11.20;99.90;;;;;;5225976;28;20023;-69
2023/04/07 09:09:51;;;;;;;65.05;60.88;;;11.20;99.90;;;;;;5225918;28;20025;-70
2023/04/07 09:12:22;;;;;;;66.90;62.72;;;11.10;99.90;;;;;;5225899;28;20032;-70
2023/04/07 09:14:53;;;;;;;64.38;60.40;;;11.40;99.90;;;;;;5225803;28;20041;-70
2023/04/07 09:17:26;;;;;;;67.40;63.25;;;11.20;99.90;;;;;;5225782;28;20023;-70
2023/04/07 09:20:00;;;;;;;68.93;64.70;;;11.90;99.90;;;;;;5225768;28;20029;-70
2023/04/07 09:22:39;;;;;;;72.25;67.85;;;12.40;99.90;;;;;;5225722;28;20025;-70
2023/04/07 09:25:22;;;;;;;76.70;72.07;;;12.00;99.90;;;;;;5225702;28;20041;-70
2023/04/07 09:28:03;;;;;;;75.13;70.22;;;11.80;99.90;;;;;;5228718;28;20031;-69
2023/04/07 09:30:34;;;;;;;78.43;73.32;;;11.80;99.90;;;;;;5229408;28;20029;-70
2023/04/07 09:33:05;;;;;;;73.15;68.45;;;11.70;99.90;;;;;;5228979;28;20045;-69
2023/04/07 09:35:51;;;;;;;76.18;71.40;;;11.40;99.90;;;;;;5229237;28;20029;-70
2023/04/07 09:38:22;;;;;;;75.55;70.88;;;11.80;99.90;;;;;;5229242;28;20025;-70
2023/04/07 09:41:05;;;;;;;72.38;67.93;;;11.60;99.90;;;;;;5229231;28;20025;-70
2023/04/07 09:43:40;;;;;;;76.93;72.20;;;11.70;99.90;;;;;;5228945;28;20056;-70
2023/04/07 09:46:17;;;;;;;74.07;69.40;;;11.90;99.90;;;;;;5228995;28;20025;-70
2023/04/07 09:49:06;;;;;;;72.40;67.95;;;11.30;99.90;;;;;;5228952;28;20072;-70
2023/04/07 09:51:37;;;;;;;76.43;71.65;;;11.80;99.90;;;;;;5228832;28;20175;-70
2023/04/07 09:54:08;;;;;;;71.30;66.88;;;11.90;99.90;;;;;;5228794;28;20096;-70
2023/04/07 09:56:39;;;;;;;78.28;73.38;;;12.20;99.90;;;;;;5228880;28;20036;-70
2023/04/07 09:59:10;;;;;;;78.70;73.90;;;12.20;99.90;;;;;;5228815;28;20029;-70
2023/04/07 10:01:43;;;;;;;78.20;73.05;;;12.30;99.90;;;;;;5228732;28;20031;-70
2023/04/07 10:04:14;;;;;;;76.32;71.50;;;12.30;99.90;;;;;;5228594;28;20404;-70
2023/04/07 10:06:46;;;;;;;81.13;76.13;;;12.00;99.90;;;;;;5228734;28;20021;-70
2023/04/07 10:09:17;;;;;;;76.47;71.80;;;12.30;99.90;;;;;;5228669;28;20056;-70
2023/04/07 10:11:50;;;;;;;77.95;73.10;;;12.30;99.90;;;;;;5228775;28;20029;-70
2023/04/07 10:14:27;;;;;;;76.13;71.35;;;12.50;99.90;;;;;;5228957;28;20053;-70
2023/04/07 10:17:00;;;;;;;76.57;71.63;;;12.90;99.90;;;;;;5228827;28;20029;-70
2023/04/07 10:19:33;;;;;;;75.97;71.28;;;12.70;99.90;;;;;;5228461;28;20020;-70
2023/04/07 10:22:05;;;;;;;74.20;69.57;;;12.20;99.90;;;;;;5228613;28;20033;-70
2023/04/07 10:24:51;;;;;;;71.60;67.28;;;12.80;99.90;;;;;;5228268;28;20369;-70
2023/04/07 10:27:32;;;;;;;77.88;73.20;;;12.70;99.90;;;;;;5228337;28;20499;-70
2023/04/07 10:30:10;;;;;;;77.93;73.30;;;12.60;99.90;;;;;;5228410;28;20090;-70
2023/04/07 10:32:49;;;;;;;79.00;74.25;;;12.20;99.90;;;;;;5228035;28;20040;-70
2023/04/07 10:35:21;;;;;;;85.63;80.32;;;12.00;99.90;;;;;;5228346;28;20049;-70
2023/04/07 10:38:07;;;;;;;81.15;76.32;;;12.00;99.90;;;;;;5227865;28;20029;-69
2023/04/07 10:40:39;;;;;;;76.97;72.35;;;12.10;99.90;;;;;;5227289;28;20063;-69
2023/04/07 10:43:10;;;;;;;74.18;69.47;;;12.30;99.90;;;;;;5227142;28;20094;-70
2023/04/07 10:45:47;;;;;;;81.82;76.97;;;13.10;99.90;;;;;;5227100;28;20029;-70
2023/04/07 10:48:19;;;;;;;74.40;69.88;;;12.80;99.90;;;;;;5227033;28;20095;-69
2023/04/07 10:51:06;;;;;;;70.15;65.80;;;13.00;99.90;;;;;;5226899;28;20036;-70
2023/04/07 10:53:37;;;;;;;64.75;60.75;;;12.80;99.90;;;;;;5227164;28;20037;-70
2023/04/07 10:56:08;;;;;;;63.97;59.97;;;13.50;99.90;;;;;;5227686;28;20506;-70
2023/04/07 10:58:39;;;;;;;57.67;54.10;;;13.90;99.90;;;;;;5227625;28;20021;-70
2023/04/07 11:01:10;;;;;;;61.92;58.08;;;13.50;99.90;;;;;;5227544;28;20029;-69
2023/04/07 11:03:52;;;;;;;63.08;59.03;;;13.40;99.90;;;;;;5227252;28;20025;-70
2023/04/07 11:06:23;;;;;;;62.45;58.55;;;13.50;99.90;;;;;;5227452;28;20036;-70
2023/04/07 11:08:54;;;;;;;63.85;59.58;;;13.40;99.90;;;;;;5227475;28;20013;-70
2023/04/07 11:11:37;;;;;;;67.03;62.83;;;13.50;99.90;;;;;;5227312;28;20465;-70
2023/04/07 11:14:08;;;;;;;75.03;70.20;;;12.40;99.90;;;;;;5227429;28;20025;-69
2023/04/07 11:16:44;;;;;;;83.60;78.65;;;12.10;99.90;;;;;;5227313;28;20350;-70
2023/04/07 11:19:15;;;;;;;74.93;70.20;;;12.40;99.90;;;;;;5227263;28;20017;-70
2023/04/07 11:21:46;;;;;;;68.00;63.70;;;13.40;99.90;;;;;;5227324;28;20334;-70
2023/04/07 11:24:38;;;;;;;70.40;65.47;;;13.40;99.90;;;;;;5227141;28;20483;-70
2023/04/07 11:27:13;;;;;;;64.30;60.20;;;13.70;99.90;;;;;;5227170;28;20036;-69
2023/04/07 11:29:44;;;;;;;72.72;68.32;;;12.80;99.90;;;;;;5227055;28;20025;-70
2023/04/07 11:32:15;;;;;;;60.97;57.08;;;13.30;99.90;;;;;;5227099;28;20100;-70
2023/04/07 11:34:46;;;;;;;61.40;57.45;;;13.50;99.90;;;;;;5227286;28;20040;-70
2023/04/07 11:37:27;;;;;;;63.28;59.38;;;13.70;99.90;;;;;;5227079;28;20024;-70
2023/04/07 11:39:58;;;;;;;58.35;54.55;;;13.30;99.90;;;;;;5227068;28;20111;-70
2023/04/07 11:42:37;;;;;;;63.03;59.20;;;14.00;99.90;;;;;;5226917;28;20039;-70
2023/04/07 11:45:19;;;;;;;61.17;57.45;;;13.20;99.90;;;;;;5226904;28;20052;-68
2023/04/07 11:47:50;;;;;;;64.15;60.15;;;13.70;99.90;;;;;;5226723;28;20361;-69
2023/04/07 11:50:41;;;;;;;61.58;57.60;;;13.60;99.90;;;;;;5226172;28;20025;-69
2023/04/07 11:53:12;;;;;;;60.17;56.38;;;13.70;99.90;;;;;;5226771;28;20040;-69
2023/04/07 11:55:43;;;;;;;65.95;61.88;;;13.00;99.90;;;;;;5226741;28;20029;-69
2023/04/07 11:58:14;;;;;;;63.53;59.50;;;13.70;99.90;;;;;;5226745;28;20052;-70
2023/04/07 12:00:55;;;;;;;60.42;56.58;;;13.30;99.90;;;;;;5226561;28;20040;-70
2023/04/07 12:03:27;;;;;;;57.03;53.45;;;13.70;99.90;;;;;;5226308;28;20131;-70
2023/04/07 12:05:58;;;;;;;60.28;56.22;;;14.30;99.90;;;;;;5226505;28;20399;-69
2023/04/07 12:08:40;;;;;;;62.15;58.28;;;14.00;99.90;;;;;;5226516;28;20473;-70
2023/04/07 12:11:11;;;;;;;69.78;65.28;;;13.00;99.90;;;;;;5226326;28;20396;-70
2023/04/07 12:13:42;;;;;;;66.50;62.50;;;13.30;99.90;;;;;;5226491;28;20082;-69
2023/04/07 12:16:12;;;;;;;61.30;57.28;;;14.20;99.90;;;;;;5226571;28;20059;-69
2023/04/07 12:18:43;;;;;;;53.53;49.92;;;14.00;99.90;;;;;;5226359;28;20491;-70
2023/04/07 12:21:15;;;;;;;57.75;53.90;;;14.00;99.90;;;;;;5226397;28;20431;-70
2023/04/07 12:23:47;;;;;;;56.72;53.05;;;14.30;99.90;;;;;;5226214;28;20075;-69
2023/04/07 12:26:18;;;;;;;65.63;61.15;;;14.00;99.90;;;;;;5226499;28;20422;-70
2023/04/07 12:28:49;;;;;;;61.35;57.55;;;13.50;99.90;;;;;;5226245;28;20037;-70
2023/04/07 12:31:20;;;;;;;64.10;60.03;;;14.00;99.90;;;;;;5226158;28;20536;-69
2023/04/07 12:33:51;;;;;;;60.67;56.80;;;14.00;99.90;;;;;;5226037;28;20110;-70
2023/04/07 12:36:22;;;;;;;60.92;57.13;;;14.10;99.90;;;;;;5226638;28;20512;-70
2023/04/07 12:38:53;;;;;;;61.22;57.35;;;14.10;99.90;;;;;;5226100;28;20035;-70
2023/04/07 12:41:24;;;;;;;69.00;64.55;;;13.60;99.90;;;;;;5226233;28;20071;-70
2023/04/07 12:43:55;;;;;;;69.80;65.38;;;13.40;99.90;;;;;;5225943;28;20033;-69
2023/04/07 12:46:26;;;;;;;73.20;68.72;;;13.50;99.90;;;;;;5226176;28;20027;-70
2023/04/07 12:48:57;;;;;;;70.57;66.00;;;13.30;99.90;;;;;;5224913;28;20492;-70
2023/04/07 12:51:28;;;;;;;71.07;66.82;;;13.50;99.90;;;;;;5226429;28;20029;-70
2023/04/07 12:54:02;;;;;;;68.88;64.78;;;13.20;99.90;;;;;;5226244;28;20037;-70
2023/04/07 12:56:33;;;;;;;75.57;71.10;;;13.50;99.90;;;;;;5226269;28;20036;-70
2023/04/07 12:59:04;;;;;;;79.35;74.70;;;12.70;99.90;;;;;;5226086;28;20033;-69
2023/04/07 13:01:35;;;;;;;73.28;68.55;;;13.40;99.90;;;;;;5227116;28;20025;-69